Time;durP1;ratioP1;P1;durP2;ratioP2;P2;SDS_P1;SDS_P2;PMS_P1;PMS_P2;Temp;Humidity;BMP_temperature;BMP_pressure;BME280_temperature;BME280_humidity;BME280_pressure;Samples;Min_cycle;Max_cycle;Signal;HPM_P1;HPM_P2
2022/11/10 00:00:42;;;;;;;1999.90;999.90;;;9.30;99.90;;;;;;5007696;28;20041;-66
2022/11/10 00:03:09;;;;;;;1999.90;999.90;;;9.30;99.90;;;;;;5021075;28;20062;-66
2022/11/10 00:05:37;;;;;;;1999.90;999.90;;;9.30;99.90;;;;;;5018018;28;20038;-66
2022/11/10 00:08:05;;;;;;;1999.90;999.90;;;9.30;99.90;;;;;;5000684;28;20045;-66
2022/11/10 00:10:31;;;;;;;1999.90;999.90;;;9.30;99.90;;;;;;5007254;28;20497;-66
2022/11/10 00:13:01;;;;;;;1999.90;999.90;;;9.30;99.90;;;;;;5008027;28;20129;-66
2022/11/10 00:18:12;;;;;;;1999.90;999.90;;;9.30;99.90;;;;;;5007076;28;20482;-66
2022/11/10 00:20:38;;;;;;;1999.90;999.90;;;9.20;99.90;;;;;;5007228;28;20116;-66
2022/11/10 00:23:04;;;;;;;1999.90;999.90;;;9.20;99.90;;;;;;5004209;28;20042;-66
2022/11/10 00:25:31;;;;;;;1999.90;999.90;;;9.20;99.90;;;;;;5007310;28;20482;-66
2022/11/10 00:27:58;;;;;;;1999.90;999.90;;;9.20;99.90;;;;;;5003527;28;20053;-66
2022/11/10 00:30:24;;;;;;;1999.90;999.90;;;9.20;99.90;;;;;;5006002;28;20094;-66
2022/11/10 00:32:50;;;;;;;1999.90;999.90;;;9.20;99.90;;;;;;5003347;28;20485;-66
2022/11/10 00:35:16;;;;;;;1999.90;999.90;;;9.20;99.90;;;;;;5006168;28;20038;-66
2022/11/10 00:37:41;;;;;;;1999.90;999.90;;;9.20;99.90;;;;;;5001524;28;20410;-66
2022/11/10 00:40:08;;;;;;;1999.90;999.90;;;9.20;99.90;;;;;;5021056;28;20050;-66
2022/11/10 00:42:33;;;;;;;1999.90;999.90;;;9.20;99.90;;;;;;5012357;28;20037;-66
2022/11/10 00:44:59;;;;;;;1999.90;999.90;;;9.20;99.90;;;;;;5022670;28;20100;-66
2022/11/10 00:47:24;;;;;;;1999.90;999.90;;;9.20;99.90;;;;;;5023136;28;20080;-66
2022/11/10 00:49:50;;;;;;;1999.90;999.90;;;9.10;99.90;;;;;;5013797;28;20501;-66
2022/11/10 00:52:15;;;;;;;1999.90;999.90;;;9.10;99.90;;;;;;5021965;28;20080;-66
2022/11/10 00:54:41;;;;;;;1999.90;999.90;;;9.10;99.90;;;;;;5008612;28;20053;-66
2022/11/10 00:57:06;;;;;;;1999.90;999.90;;;9.10;99.90;;;;;;5022263;28;20045;-66
2022/11/10 00:59:32;;;;;;;1999.90;999.90;;;9.10;99.90;;;;;;5001300;28;20042;-66
2022/11/10 01:01:58;;;;;;;1999.90;999.90;;;9.10;99.90;;;;;;5003555;28;20037;-66
2022/11/10 01:04:23;;;;;;;1999.90;999.90;;;9.10;99.90;;;;;;5015701;28;20046;-66
2022/11/10 01:06:50;;;;;;;1999.90;999.90;;;9.10;99.90;;;;;;5029483;28;20049;-66
2022/11/10 01:09:16;;;;;;;1999.90;999.90;;;9.20;99.90;;;;;;5018949;28;20076;-66
2022/11/10 01:11:41;;;;;;;1999.90;999.90;;;9.20;99.90;;;;;;5006605;28;20497;-66
2022/11/10 01:14:07;;;;;;;1999.90;999.90;;;9.20;99.90;;;;;;4994355;28;20043;-66
2022/11/10 01:16:33;;;;;;;1999.90;999.90;;;9.30;99.90;;;;;;5006398;28;20034;-66
2022/11/10 01:19:01;;;;;;;1999.90;999.90;;;9.30;99.90;;;;;;5007803;28;20399;-66
2022/11/10 01:21:27;;;;;;;1999.90;999.90;;;9.30;99.90;;;;;;5004413;28;20053;-66
2022/11/10 01:23:54;;;;;;;1999.90;999.90;;;9.30;99.90;;;;;;5005754;28;20042;-66
2022/11/10 01:26:19;;;;;;;1999.90;999.90;;;9.20;99.90;;;;;;4987853;28;20057;-66
2022/11/10 01:28:45;;;;;;;1999.90;999.90;;;9.20;99.90;;;;;;5014356;28;20041;-66
2022/11/10 01:31:14;;;;;;;1999.90;999.90;;;9.20;99.90;;;;;;4994222;28;20039;-66
2022/11/10 01:33:40;;;;;;;1999.90;999.90;;;9.20;99.90;;;;;;5000295;28;20061;-66
2022/11/10 01:36:07;;;;;;;1999.90;999.90;;;9.10;99.90;;;;;;5005986;28;20402;-66
2022/11/10 01:38:35;;;;;;;1999.90;999.90;;;9.10;99.90;;;;;;5000781;28;20042;-66
2022/11/10 01:41:02;;;;;;;1999.90;999.90;;;9.10;99.90;;;;;;5022410;28;20498;-66
2022/11/10 01:43:28;;;;;;;1999.90;999.90;;;9.10;99.90;;;;;;5010454;28;20497;-66
2022/11/10 01:45:57;;;;;;;1999.90;999.90;;;9.10;99.90;;;;;;5009898;28;20057;-66
2022/11/10 01:48:41;;;;;;;1999.90;999.90;;;9.10;99.90;;;;;;5009666;28;20056;-66
2022/11/10 01:51:19;;;;;;;1999.90;999.90;;;9.10;99.90;;;;;;5009060;28;20085;-66
2022/11/10 01:53:50;;;;;;;1999.90;999.90;;;9.10;99.90;;;;;;5006756;28;20050;-66
2022/11/10 01:56:16;;;;;;;1999.90;999.90;;;9.00;99.90;;;;;;5009940;28;20048;-66
2022/11/10 01:58:50;;;;;;;1999.90;999.90;;;9.00;99.90;;;;;;5008200;28;20050;-66
2022/11/10 02:01:16;;;;;;;1999.90;999.90;;;9.00;99.90;;;;;;5024241;28;20045;-66
2022/11/10 02:03:47;;;;;;;1999.90;999.90;;;9.00;99.90;;;;;;5009955;28;20041;-66
2022/11/10 02:06:14;;;;;;;1999.90;999.90;;;9.00;99.90;;;;;;4991013;28;20068;-66
2022/11/10 02:08:41;;;;;;;1999.90;999.90;;;9.00;99.90;;;;;;5025568;28;20161;-66
2022/11/10 02:11:07;;;;;;;1999.90;999.90;;;9.00;99.90;;;;;;4991012;28;20073;-66
2022/11/10 02:13:33;;;;;;;1999.90;999.90;;;9.00;99.90;;;;;;5009750;28;20066;-66
2022/11/10 02:15:58;;;;;;;1999.90;999.90;;;9.00;99.90;;;;;;5011311;28;20087;-66
2022/11/10 02:18:24;;;;;;;1999.90;999.90;;;9.00;99.90;;;;;;5010529;28;20041;-66
2022/11/10 02:20:49;;;;;;;1999.90;999.90;;;9.00;99.90;;;;;;5004741;28;20034;-66
2022/11/10 02:23:33;;;;;;;1999.90;999.90;;;9.00;99.90;;;;;;5007725;28;20041;-66
2022/11/10 02:25:59;;;;;;;1999.90;999.90;;;9.00;99.90;;;;;;5006646;28;20050;-66
2022/11/10 02:28:26;;;;;;;1999.90;999.90;;;9.00;99.90;;;;;;5010721;28;20388;-67
2022/11/10 02:30:51;;;;;;;1999.90;999.90;;;9.00;99.90;;;;;;5030477;28;20056;-66
2022/11/10 02:33:17;;;;;;;1999.90;999.90;;;9.00;99.90;;;;;;5006009;28;20045;-66
2022/11/10 02:35:47;;;;;;;1999.90;999.90;;;9.10;99.90;;;;;;5010737;28;20033;-66
2022/11/10 02:38:13;;;;;;;1999.90;999.90;;;9.10;99.90;;;;;;5007657;28;20101;-66
2022/11/10 02:40:39;;;;;;;1999.90;999.90;;;9.10;99.90;;;;;;5008988;28;20046;-66
2022/11/10 02:43:07;;;;;;;1999.90;999.90;;;9.10;99.90;;;;;;5008443;28;20061;-66
2022/11/10 02:45:32;;;;;;;1999.90;999.90;;;9.10;99.90;;;;;;5010099;28;20413;-66
2022/11/10 02:47:58;;;;;;;1999.90;999.90;;;9.10;99.90;;;;;;5010179;28;20104;-67
2022/11/10 02:50:24;;;;;;;1999.90;999.90;;;9.10;99.90;;;;;;5007827;28;20227;-67
2022/11/10 02:52:50;;;;;;;1999.90;999.90;;;9.10;99.90;;;;;;5004852;28;20069;-66
2022/11/10 02:55:16;;;;;;;1999.90;999.90;;;9.20;99.90;;;;;;5008591;28;20061;-66
2022/11/10 02:57:41;;;;;;;1999.90;999.90;;;9.10;99.90;;;;;;5017024;28;20053;-66
2022/11/10 03:00:08;;;;;;;1999.90;999.90;;;9.20;99.90;;;;;;5005469;28;20718;-66
2022/11/10 03:02:33;;;;;;;1999.90;999.90;;;9.20;99.90;;;;;;5008482;28;20038;-66
2022/11/10 03:04:59;;;;;;;1999.90;999.90;;;9.20;99.90;;;;;;5006444;28;20108;-66
2022/11/10 03:07:24;;;;;;;1999.90;999.90;;;9.20;99.90;;;;;;5008080;28;20034;-66
2022/11/10 03:09:50;;;;;;;1999.90;999.90;;;9.20;99.90;;;;;;4987252;28;20041;-66
2022/11/10 03:12:17;;;;;;;1999.90;999.90;;;9.20;99.90;;;;;;5003079;28;20413;-66
2022/11/10 03:14:42;;;;;;;1999.90;999.90;;;9.20;99.90;;;;;;5008763;28;20045;-66
2022/11/10 03:17:08;;;;;;;1999.90;999.90;;;9.30;99.90;;;;;;5008148;28;20116;-66
2022/11/10 03:19:34;;;;;;;1999.90;999.90;;;9.30;99.90;;;;;;4980116;28;20042;-66
2022/11/10 03:21:59;;;;;;;1999.90;999.90;;;9.30;99.90;;;;;;5009293;28;20049;-66
2022/11/10 03:24:25;;;;;;;1999.90;999.90;;;9.30;99.90;;;;;;5001280;28;20042;-66
2022/11/10 03:26:50;;;;;;;1999.90;999.90;;;9.30;99.90;;;;;;5007497;28;20548;-66
2022/11/10 03:29:16;;;;;;;1999.90;999.90;;;9.40;99.90;;;;;;4990747;28;20060;-66
2022/11/10 03:31:42;;;;;;;1999.90;999.90;;;9.40;99.90;;;;;;5012432;28;20046;-66
2022/11/10 03:34:07;;;;;;;1999.90;999.90;;;9.40;99.90;;;;;;4999838;28;20194;-66
2022/11/10 03:36:33;;;;;;;1999.90;999.90;;;9.30;99.90;;;;;;5007883;28;20051;-66
2022/11/10 03:38:58;;;;;;;1999.90;999.90;;;9.30;99.90;;;;;;5021553;28;20041;-66
2022/11/10 03:41:24;;;;;;;1999.90;999.90;;;9.30;99.90;;;;;;5010604;28;20042;-66
2022/11/10 03:43:49;;;;;;;1999.90;999.90;;;9.30;99.90;;;;;;5025350;28;20050;-66
2022/11/10 03:46:15;;;;;;;1999.90;999.90;;;9.30;99.90;;;;;;5007027;28;20060;-66
2022/11/10 03:48:41;;;;;;;1999.90;999.90;;;9.30;99.90;;;;;;5005236;28;20132;-66
2022/11/10 03:51:07;;;;;;;1999.90;999.90;;;9.30;99.90;;;;;;4989431;28;20593;-66
2022/11/10 03:53:32;;;;;;;1999.90;999.90;;;9.20;99.90;;;;;;5010205;28;20477;-66
2022/11/10 03:56:03;;;;;;;1999.90;999.90;;;9.20;99.90;;;;;;5023837;28;20136;-66
2022/11/10 03:58:29;;;;;;;1999.90;999.90;;;9.20;99.90;;;;;;5007467;28;20042;-66
2022/11/10 04:00:55;;;;;;;1999.90;999.90;;;9.20;99.90;;;;;;5024308;28;20053;-66
2022/11/10 04:03:21;;;;;;;1999.90;999.90;;;9.20;99.90;;;;;;5008819;28;20041;-66
2022/11/10 04:15:40;;;;;;;1999.90;999.90;;;9.20;99.90;;;;;;5012348;28;20405;-66
2022/11/10 04:16:47;;;;;;;1999.90;999.90;;;9.10;99.90;;;;;;5006336;28;20062;-66
2022/11/10 04:19:13;;;;;;;1999.90;999.90;;;9.20;99.90;;;;;;4998598;28;20054;-66
2022/11/10 04:21:38;;;;;;;1999.90;999.90;;;9.20;99.90;;;;;;5006861;28;20531;-66
2022/11/10 04:24:04;;;;;;;1999.90;999.90;;;9.20;99.90;;;;;;5009014;28;20096;-66
2022/11/10 04:26:31;;;;;;;1999.90;999.90;;;9.30;99.90;;;;;;4990868;28;20046;-66
2022/11/10 04:29:02;;;;;;;1999.90;999.90;;;9.30;99.90;;;;;;4998842;28;20123;-66
2022/11/10 04:31:29;;;;;;;1999.90;999.90;;;9.40;99.90;;;;;;5009033;28;20153;-66
2022/11/10 04:33:56;;;;;;;1999.90;999.90;;;9.40;99.90;;;;;;5006811;28;20042;-66
2022/11/10 04:36:26;;;;;;;1999.90;999.90;;;9.40;99.90;;;;;;4997928;28;20050;-66
2022/11/10 04:38:51;;;;;;;1999.90;999.90;;;9.40;99.90;;;;;;5005458;28;20049;-66
2022/11/10 04:41:17;;;;;;;1999.90;999.90;;;9.50;99.90;;;;;;5008138;28;20493;-66
2022/11/10 04:43:43;;;;;;;1999.90;999.90;;;9.50;99.90;;;;;;4999073;28;20034;-66
2022/11/10 04:46:17;;;;;;;1999.90;999.90;;;9.50;99.90;;;;;;5017866;28;20081;-66
2022/11/10 04:48:42;;;;;;;1999.90;999.90;;;9.50;99.90;;;;;;5018911;28;20053;-66
2022/11/10 04:51:10;;;;;;;1999.90;999.90;;;9.50;99.90;;;;;;5013725;28;20492;-66
2022/11/10 04:53:35;;;;;;;1999.90;999.90;;;9.50;99.90;;;;;;4989859;28;20050;-66
2022/11/10 04:56:01;;;;;;;1999.90;999.90;;;9.60;99.90;;;;;;5020367;28;20046;-66
2022/11/10 04:58:26;;;;;;;1999.90;999.90;;;9.60;99.90;;;;;;5027820;28;20129;-66
2022/11/10 05:00:52;;;;;;;1999.90;999.90;;;9.60;99.90;;;;;;5004188;28;20137;-67
2022/11/10 05:03:17;;;;;;;1999.90;999.90;;;9.60;99.90;;;;;;5011932;28;20034;-67
2022/11/10 05:05:43;;;;;;;1999.90;999.90;;;9.60;99.90;;;;;;5022745;28;20045;-66
2022/11/10 05:08:09;;;;;;;1999.90;999.90;;;9.60;99.90;;;;;;5007503;28;20050;-67
2022/11/10 05:10:36;;;;;;;1999.90;999.90;;;9.60;99.90;;;;;;4997166;28;20529;-66
2022/11/10 05:13:03;;;;;;;1999.90;999.90;;;9.60;99.90;;;;;;5026855;28;20049;-66
2022/11/10 05:15:29;;;;;;;1999.90;999.90;;;9.60;99.90;;;;;;5005719;28;20048;-66
2022/11/10 05:17:55;;;;;;;1999.90;999.90;;;9.60;99.90;;;;;;5003871;28;20050;-67
2022/11/10 05:20:22;;;;;;;1999.90;999.90;;;9.60;99.90;;;;;;4995947;28;20428;-66
2022/11/10 05:25:35;;;;;;;1999.90;999.90;;;9.70;99.90;;;;;;5009566;28;20047;-66
2022/11/10 05:28:02;;;;;;;1999.90;999.90;;;9.70;99.90;;;;;;5029314;28;20042;-66
2022/11/10 05:30:28;;;;;;;1999.90;999.90;;;9.70;99.90;;;;;;4989697;28;20050;-66
2022/11/10 05:32:53;;;;;;;1999.90;999.90;;;9.70;99.90;;;;;;5001887;28;20049;-66
2022/11/10 05:35:19;;;;;;;1999.90;999.90;;;9.70;99.90;;;;;;5007512;28;20042;-66
2022/11/10 05:37:45;;;;;;;1999.90;999.90;;;9.70;99.90;;;;;;4999048;28;20197;-66
2022/11/10 05:40:11;;;;;;;1999.90;999.90;;;9.70;99.90;;;;;;5006834;28;20049;-67
2022/11/10 05:42:47;;;;;;;1999.90;999.90;;;9.70;99.90;;;;;;5007254;28;20124;-67
2022/11/10 05:45:14;;;;;;;1999.90;999.90;;;9.70;99.90;;;;;;5004552;28;20058;-66
2022/11/10 05:47:40;;;;;;;1999.90;999.90;;;9.80;99.90;;;;;;5012860;28;20053;-66
2022/11/10 05:50:07;;;;;;;1999.90;999.90;;;9.80;99.90;;;;;;5021132;28;20046;-66
2022/11/10 05:52:33;;;;;;;1999.90;999.90;;;9.80;99.90;;;;;;5004488;28;20054;-66
2022/11/10 05:54:59;;;;;;;1999.90;999.90;;;9.80;99.90;;;;;;5000896;28;20428;-66
2022/11/10 05:57:25;;;;;;;1999.90;999.90;;;9.80;99.90;;;;;;5007758;28;20038;-66
2022/11/10 05:59:50;;;;;;;1999.90;999.90;;;9.80;99.90;;;;;;5014037;28;20473;-66
2022/11/10 06:02:16;;;;;;;1999.90;999.90;;;9.80;99.90;;;;;;4989702;28;20046;-67
2022/11/10 06:04:42;;;;;;;1999.90;999.90;;;9.80;99.90;;;;;;5021360;28;20132;-66
2022/11/10 06:07:07;;;;;;;1999.90;999.90;;;9.80;99.90;;;;;;5006306;28;20508;-66
2022/11/10 06:09:33;;;;;;;1999.90;999.90;;;9.80;99.90;;;;;;5020592;28;20401;-66
2022/11/10 06:12:00;;;;;;;1999.90;999.90;;;9.80;99.90;;;;;;5003147;28;20052;-66
2022/11/10 06:14:26;;;;;;;1999.90;999.90;;;9.80;99.90;;;;;;5009344;28;20045;-66
2022/11/10 06:16:51;;;;;;;1999.90;999.90;;;9.80;99.90;;;;;;5009863;28;20088;-67
2022/11/10 06:19:17;;;;;;;1999.90;999.90;;;9.80;99.90;;;;;;5017397;28;20152;-66
2022/11/10 06:21:42;;;;;;;1999.90;999.90;;;9.80;99.90;;;;;;5002381;28;20042;-66
2022/11/10 06:24:09;;;;;;;1999.90;999.90;;;9.80;99.90;;;;;;5007035;28;20046;-66
2022/11/10 06:26:34;;;;;;;1999.90;999.90;;;9.80;99.90;;;;;;5011589;28;20053;-67
2022/11/10 06:29:00;;;;;;;1999.90;999.90;;;9.80;99.90;;;;;;5025193;28;20489;-66
2022/11/10 06:31:26;;;;;;;1999.90;999.90;;;9.80;99.90;;;;;;5004150;28;20097;-66
2022/11/10 06:33:52;;;;;;;1999.90;999.90;;;9.80;99.90;;;;;;5003258;28;20046;-66
2022/11/10 06:36:17;;;;;;;1999.90;999.90;;;9.80;99.90;;;;;;5014308;28;20057;-67
2022/11/10 06:38:43;;;;;;;1999.90;999.90;;;9.80;99.90;;;;;;5006849;28;20513;-66
2022/11/10 06:41:08;;;;;;;1999.90;999.90;;;9.80;99.90;;;;;;5008055;28;20567;-66
2022/11/10 06:43:34;;;;;;;1999.90;999.90;;;9.80;99.90;;;;;;4999986;28;20057;-66
2022/11/10 06:46:00;;;;;;;1999.90;999.90;;;9.80;99.90;;;;;;5021350;28;20050;-67
2022/11/10 06:48:25;;;;;;;1999.90;999.90;;;9.80;99.90;;;;;;5008466;28;20441;-66
2022/11/10 06:50:51;;;;;;;1999.90;999.90;;;9.80;99.90;;;;;;5002766;28;20109;-66
2022/11/10 06:53:17;;;;;;;1999.90;999.90;;;9.80;99.90;;;;;;5010228;28;20046;-66
2022/11/10 06:55:42;;;;;;;1999.90;999.90;;;9.80;99.90;;;;;;4988110;28;20042;-66
2022/11/10 06:58:09;;;;;;;1999.90;999.90;;;9.80;99.90;;;;;;5023943;28;20456;-66
2022/11/10 07:00:35;;;;;;;1999.90;999.90;;;9.80;99.90;;;;;;5008947;28;20125;-66
2022/11/10 07:03:11;;;;;;;1999.90;999.90;;;9.90;99.90;;;;;;5003330;28;20421;-66
2022/11/10 07:05:36;;;;;;;1999.90;999.90;;;9.90;99.90;;;;;;5008904;28;20042;-66
2022/11/10 07:08:15;;;;;;;1999.90;999.90;;;9.90;99.90;;;;;;5006403;28;20041;-66
2022/11/10 07:10:41;;;;;;;1999.90;999.90;;;9.90;99.90;;;;;;5001139;28;20054;-66
2022/11/10 07:13:09;;;;;;;1999.90;999.90;;;10.00;99.90;;;;;;5020011;28;20041;-66
2022/11/10 07:15:34;;;;;;;1999.90;999.90;;;10.00;99.90;;;;;;5011328;28;20034;-66
2022/11/10 07:18:01;;;;;;;1999.90;999.90;;;10.10;99.90;;;;;;5019354;28;20379;-66
2022/11/10 07:20:28;;;;;;;1999.90;999.90;;;10.10;99.90;;;;;;5008367;28;20397;-67
2022/11/10 07:23:05;;;;;;;1999.90;999.90;;;10.20;99.90;;;;;;5016007;28;20056;-66
2022/11/10 07:25:35;;;;;;;1999.90;999.90;;;10.20;99.90;;;;;;5009192;28;20116;-66
2022/11/10 07:28:04;;;;;;;1999.90;999.90;;;10.30;99.90;;;;;;5005455;28;20050;-66
2022/11/10 07:30:31;;;;;;;1999.90;999.90;;;10.30;99.90;;;;;;5003981;28;20087;-66
2022/11/10 07:33:10;;;;;;;1999.90;999.90;;;10.20;99.90;;;;;;5008217;28;20080;-66
2022/11/10 07:35:36;;;;;;;1999.90;999.90;;;10.20;99.90;;;;;;4990855;28;20074;-66
2022/11/10 07:38:04;;;;;;;1999.90;999.90;;;10.20;99.90;;;;;;5005396;28;20088;-66
2022/11/10 07:40:30;;;;;;;1999.90;999.90;;;10.20;99.90;;;;;;5014036;28;20046;-66
2022/11/10 07:42:56;;;;;;;1999.90;999.90;;;10.20;99.90;;;;;;5028109;28;20571;-66
2022/11/10 07:45:22;;;;;;;1999.90;999.90;;;10.20;99.90;;;;;;5007413;28;20057;-66
2022/11/10 07:47:47;;;;;;;1999.90;999.90;;;10.20;99.90;;;;;;4990994;28;20533;-66
2022/11/10 07:50:13;;;;;;;1999.90;999.90;;;10.20;99.90;;;;;;5008030;28;20536;-66
2022/11/10 07:52:38;;;;;;;1999.90;999.90;;;10.20;99.90;;;;;;5021540;28;20137;-66
2022/11/10 07:55:05;;;;;;;1999.90;999.90;;;10.20;99.90;;;;;;5005022;28;20041;-66
2022/11/10 07:57:31;;;;;;;1999.90;999.90;;;10.20;99.90;;;;;;4994314;28;20057;-66
2022/11/10 07:59:57;;;;;;;1999.90;999.90;;;10.20;99.90;;;;;;5016483;28;20108;-66
2022/11/10 08:02:23;;;;;;;1999.90;999.90;;;10.20;99.90;;;;;;5006098;28;20045;-66
2022/11/10 08:04:48;;;;;;;1999.90;999.90;;;10.20;99.90;;;;;;5008019;28;20693;-66
2022/11/10 08:07:14;;;;;;;1999.90;999.90;;;10.40;99.90;;;;;;5009095;28;20405;-66
2022/11/10 08:09:39;;;;;;;1999.90;999.90;;;10.40;99.90;;;;;;5021108;28;20703;-66
2022/11/10 08:12:05;;;;;;;1999.90;999.90;;;10.50;99.90;;;;;;5016102;28;20547;-66
2022/11/10 08:14:30;;;;;;;1999.90;999.90;;;10.70;99.90;;;;;;5022621;28;20509;-66
2022/11/10 08:16:56;;;;;;;1999.90;999.90;;;11.10;99.90;;;;;;5017200;28;20049;-66
2022/11/10 08:19:22;;;;;;;1999.90;999.90;;;11.50;99.90;;;;;;5006600;28;20077;-67
2022/11/10 08:21:47;;;;;;;1999.90;999.90;;;11.80;99.90;;;;;;5008405;28;20038;-67
2022/11/10 08:24:13;;;;;;;1999.90;999.90;;;12.00;99.90;;;;;;5006369;28;20038;-66
2022/11/10 08:26:38;;;;;;;1999.90;999.90;;;12.30;99.90;;;;;;5012213;28;20069;-66
2022/11/10 08:29:04;;;;;;;1999.90;999.90;;;12.40;99.90;;;;;;5006741;28;20485;-67
2022/11/10 08:31:32;;;;;;;1999.90;999.90;;;12.70;99.90;;;;;;5006028;28;20045;-67
2022/11/10 08:33:57;;;;;;;1999.90;999.90;;;13.00;99.90;;;;;;5021140;28;20048;-67
2022/11/10 08:36:23;;;;;;;1999.90;999.90;;;13.20;99.90;;;;;;4986918;28;20038;-67
2022/11/10 08:38:48;;;;;;;1999.90;999.90;;;13.40;99.90;;;;;;4987646;28;20054;-66
2022/11/10 08:41:14;;;;;;;1999.90;999.90;;;13.60;99.90;;;;;;4986871;28;20053;-67
2022/11/10 08:43:40;;;;;;;1999.90;999.90;;;13.40;99.90;;;;;;5016506;28;20049;-67
2022/11/10 08:46:06;;;;;;;1999.90;999.90;;;13.20;99.90;;;;;;5008115;28;20052;-66
2022/11/10 08:48:32;;;;;;;1999.90;999.90;;;13.00;99.90;;;;;;5016916;28;20410;-67
2022/11/10 08:50:59;;;;;;;1999.90;999.90;;;12.70;99.90;;;;;;5007183;28;20048;-66
2022/11/10 08:53:25;;;;;;;1999.90;999.90;;;12.60;99.90;;;;;;4996515;28;20038;-66
2022/11/10 08:55:54;;;;;;;1999.90;999.90;;;12.60;99.90;;;;;;4992407;28;20042;-66
2022/11/10 08:58:22;;;;;;;1999.90;999.90;;;12.60;99.90;;;;;;4995332;28;20038;-66
2022/11/10 09:00:48;;;;;;;1999.90;999.90;;;12.70;99.90;;;;;;4976116;28;20030;-67
2022/11/10 09:03:20;;;;;;;1999.90;999.90;;;13.00;99.90;;;;;;4994890;28;20044;-66
2022/11/10 09:05:46;;;;;;;1999.90;999.90;;;13.40;99.90;;;;;;5012758;28;20038;-67
2022/11/10 09:08:12;;;;;;;1999.90;999.90;;;13.40;99.90;;;;;;5009745;28;20071;-66
2022/11/10 09:10:41;;;;;;;1999.90;999.90;;;13.40;99.90;;;;;;5005016;28;20038;-66
2022/11/10 09:13:07;;;;;;;1999.90;999.90;;;13.50;99.90;;;;;;4992622;28;20501;-66
2022/11/10 09:15:33;;;;;;;1999.90;999.90;;;13.50;99.90;;;;;;4989443;28;20046;-66
2022/11/10 09:18:00;;;;;;;1999.90;999.90;;;13.40;99.90;;;;;;5007013;28;20058;-66
2022/11/10 09:20:28;;;;;;;1999.90;999.90;;;13.30;99.90;;;;;;4996756;28;20038;-67
2022/11/10 09:22:53;;;;;;;1999.90;999.90;;;13.40;99.90;;;;;;5005485;28;20095;-66
2022/11/10 09:25:19;;;;;;;1999.90;999.90;;;13.40;99.90;;;;;;5011249;28;20050;-66
2022/11/10 09:27:45;;;;;;;1999.90;999.90;;;13.30;99.90;;;;;;5008555;28;20487;-67
2022/11/10 09:30:10;;;;;;;1999.90;999.90;;;13.30;99.90;;;;;;5010928;28;20107;-66
2022/11/10 09:32:36;;;;;;;1999.90;999.90;;;13.20;99.90;;;;;;4998801;28;20130;-67
2022/11/10 09:35:03;;;;;;;1999.90;999.90;;;13.00;99.90;;;;;;5017830;28;20046;-67
2022/11/10 09:37:28;;;;;;;1999.90;999.90;;;12.90;99.90;;;;;;5014850;28;20121;-67
2022/11/10 09:39:54;;;;;;;1999.90;999.90;;;12.80;99.90;;;;;;5003370;28;20536;-66
2022/11/10 09:42:31;;;;;;;1999.90;999.90;;;12.70;99.90;;;;;;5011176;28;20046;-66
2022/11/10 09:45:03;;;;;;;1999.90;999.90;;;12.60;99.90;;;;;;4994917;28;20081;-66
2022/11/10 09:47:56;;;;;;;1999.90;999.90;;;12.60;99.90;;;;;;5004737;28;20088;-67
2022/11/10 09:50:40;;;;;;;1999.90;999.90;;;12.60;99.90;;;;;;5006337;28;20367;-67
2022/11/10 09:53:16;;;;;;;1999.90;999.90;;;12.60;99.90;;;;;;5004570;28;20049;-67
2022/11/10 09:55:49;;;;;;;1999.90;999.90;;;12.60;99.90;;;;;;5010357;28;20124;-66
2022/11/10 09:58:17;;;;;;;1999.90;999.90;;;12.60;99.90;;;;;;5014139;28;20125;-66
2022/11/10 10:00:51;;;;;;;1999.90;999.90;;;12.50;99.90;;;;;;4997564;28;20042;-66
2022/11/10 10:03:23;;;;;;;1999.90;999.90;;;12.50;99.90;;;;;;5017962;28;20487;-67
2022/11/10 10:06:11;;;;;;;1999.90;999.90;;;12.50;99.90;;;;;;4986150;28;20046;-66
2022/11/10 10:09:01;;;;;;;1999.90;999.90;;;12.50;99.90;;;;;;4991186;28;20104;-67
2022/11/10 10:11:42;;;;;;;1999.90;999.90;;;12.50;99.90;;;;;;5017645;28;20045;-67
2022/11/10 10:14:08;;;;;;;1999.90;999.90;;;12.50;99.90;;;;;;4991114;28;20073;-66
2022/11/10 10:16:39;;;;;;;1999.90;999.90;;;12.60;99.90;;;;;;5021808;28;20517;-66
2022/11/10 10:19:23;;;;;;;1999.90;999.90;;;12.80;99.90;;;;;;5007355;28;20046;-66
2022/11/10 10:22:25;;;;;;;1999.90;999.90;;;12.90;99.90;;;;;;5006078;28;20188;-67
2022/11/10 10:24:55;;;;;;;1999.90;999.90;;;13.00;99.90;;;;;;5008188;28;20537;-67
2022/11/10 10:27:24;;;;;;;1999.90;999.90;;;13.00;99.90;;;;;;5000942;28;20034;-66
2022/11/10 10:29:50;;;;;;;1999.90;999.90;;;12.90;99.90;;;;;;5003265;28;20041;-67
2022/11/10 10:32:17;;;;;;;1999.90;999.90;;;12.90;99.90;;;;;;4986297;28;20113;-67
2022/11/10 10:34:44;;;;;;;1999.90;999.90;;;13.10;99.90;;;;;;5018201;28;20389;-67
2022/11/10 10:37:25;;;;;;;1999.90;999.90;;;13.10;99.90;;;;;;5009723;28;20073;-67
2022/11/10 10:39:56;;;;;;;1999.90;999.90;;;13.10;99.90;;;;;;5009021;28;20379;-67
2022/11/10 10:42:24;;;;;;;1999.90;999.90;;;13.10;99.90;;;;;;5024466;28;20034;-67
2022/11/10 10:45:16;;;;;;;1999.90;999.90;;;13.10;99.90;;;;;;5009052;28;20137;-67
2022/11/10 10:47:42;;;;;;;1999.90;999.90;;;13.30;99.90;;;;;;5001200;28;20391;-66
2022/11/10 10:50:32;;;;;;;1999.90;999.90;;;13.30;99.90;;;;;;5010410;28;20041;-67
2022/11/10 10:53:16;;;;;;;1999.90;999.90;;;13.40;99.90;;;;;;5007164;28;20026;-67
2022/11/10 10:55:47;;;;;;;1999.90;999.90;;;13.60;99.90;;;;;;5002578;28;20126;-67
2022/11/10 10:58:26;;;;;;;1999.90;999.90;;;13.60;99.90;;;;;;4988220;28;20046;-66
2022/11/10 11:00:54;;;;;;;1999.90;999.90;;;13.50;99.90;;;;;;5018672;28;20049;-67
2022/11/10 11:03:36;;;;;;;1999.90;999.90;;;13.50;99.90;;;;;;4999772;28;20061;-67
2022/11/10 11:06:13;;;;;;;1999.90;999.90;;;13.50;99.90;;;;;;5024685;28;20562;-67
2022/11/10 11:08:38;;;;;;;1999.90;999.90;;;13.60;99.90;;;;;;5001412;28;20097;-66
2022/11/10 11:11:09;;;;;;;1999.90;999.90;;;13.50;99.90;;;;;;5005255;28;20054;-66
2022/11/10 11:13:35;;;;;;;1999.90;999.90;;;13.50;99.90;;;;;;5010515;28;20038;-67
2022/11/10 11:16:07;;;;;;;1999.90;999.90;;;13.50;99.90;;;;;;5024094;28;20049;-66
2022/11/10 11:18:34;;;;;;;1999.90;999.90;;;13.50;99.90;;;;;;5006182;28;20042;-66
2022/11/10 11:21:16;;;;;;;1999.90;999.90;;;13.40;99.90;;;;;;5025464;28;20054;-67
2022/11/10 11:24:07;;;;;;;1999.90;999.90;;;13.40;99.90;;;;;;4997335;28;20057;-67
2022/11/10 11:26:55;;;;;;;1999.90;999.90;;;13.40;99.90;;;;;;5004891;28;20086;-66
2022/11/10 11:29:42;;;;;;;1999.90;999.90;;;13.40;99.90;;;;;;5002659;28;20045;-67
2022/11/10 11:32:52;;;;;;;1999.90;999.90;;;13.50;99.90;;;;;;5020895;28;20053;-66
2022/11/10 11:36:01;;;;;;;1999.90;999.90;;;13.50;99.90;;;;;;5007009;28;20056;-66
2022/11/10 11:38:51;;;;;;;1999.90;999.90;;;13.60;99.90;;;;;;5004075;28;20104;-66
2022/11/10 11:41:26;;;;;;;1999.90;999.90;;;13.60;99.90;;;;;;5005721;28;20371;-67
2022/11/10 11:44:02;;;;;;;1999.90;999.90;;;13.70;99.90;;;;;;5004293;28;20104;-67
2022/11/10 11:47:00;;;;;;;1999.90;999.90;;;13.70;99.90;;;;;;4997860;28;20126;-67
2022/11/10 11:49:51;;;;;;;1999.90;999.90;;;13.80;99.90;;;;;;5015753;28;20053;-68
2022/11/10 11:52:36;;;;;;;1999.90;999.90;;;13.90;99.90;;;;;;5001213;28;20748;-67
2022/11/10 11:55:24;;;;;;;1999.90;999.90;;;13.90;99.90;;;;;;5013575;28;20556;-67
2022/11/10 11:58:20;;;;;;;1999.90;999.90;;;14.00;99.90;;;;;;5007801;28;20041;-67
2022/11/10 12:01:21;;;;;;;1999.90;999.90;;;14.00;99.90;;;;;;5003185;28;20041;-67
2022/11/10 12:04:32;;;;;;;1999.90;999.90;;;14.00;99.90;;;;;;4984090;28;20111;-66
2022/11/10 12:07:21;;;;;;;1999.90;999.90;;;14.00;99.90;;;;;;5013037;28;20535;-66
2022/11/10 12:09:49;;;;;;;1999.90;999.90;;;13.90;99.90;;;;;;5006235;28;20049;-67
2022/11/10 12:12:49;;;;;;;1999.90;999.90;;;14.00;99.90;;;;;;5011677;28;20034;-66
2022/11/10 12:15:27;;;;;;;1999.90;999.90;;;14.00;99.90;;;;;;5021334;28;20042;-66
2022/11/10 12:18:11;;;;;;;1999.90;999.90;;;13.90;99.90;;;;;;5005092;28;20050;-67
2022/11/10 12:20:53;;;;;;;1999.90;999.90;;;13.90;99.90;;;;;;5004524;28;20080;-66
2022/11/10 12:23:45;;;;;;;1999.90;999.90;;;14.00;99.90;;;;;;5002100;28;20117;-67
2022/11/10 12:26:41;;;;;;;1999.90;999.90;;;14.00;99.90;;;;;;5017041;28;20823;-67
2022/11/10 12:29:29;;;;;;;1999.90;999.90;;;13.90;99.90;;;;;;5014102;28;20041;-66